Pagrindinis puslapis
METAR-TAF:

METAR-TAF

Oro uostai :

Ankara-Güvercinlik, Turkija

platuma: 39-56N, ilguma: 032-45E, Aukštis: 819 m

METAR: trūkstamas

Laikas: 12:20 (09:20 UTC)

Prognozė

Ataskaita buvo paskelbta 1 valandą ir 40 minutes, ne 07:40 UTC
Prognozė galioja nuo 27 metu 09 UTC su 27 metu 18 UTC
Vėjas 2 kt nuo kintamojo kryptimis
Matomumas 10 km arba daugiau
nėra debesų žemiau 1500 m ir nėra kamuolinių lietaus debesų
Tapsmas
nuo 27 metu 09 UTC su 27 metu 11 UTC
Išsisklaidę debesys ne aukštis 4000 ft

TAF: LTAB 270740Z 2709/2718 VRB02KT CAVOK BECMG 2709/2711 SCT040

Orai ataskaitas ir orų prognozės (METAR, TAF).

turimą stotys yra geltonos ir raudonos taškus žemėlapyje.

Perkelti pele per norėdami pamatyti stoties vardą.

Tada spustelėkite, norėdami matyti oro stebėjimo ir prognozės.

Norėdami pakeisti žemėlapį: spustelėkite ant žalios mygtukų su juodo kryžiaus žemyn,; žalią mygtuką su brūkšneliu, jei norite nutolinti; arba žalių rodyklių gretimoms žemėlapius.


METAR-TAF: